Details From EDDL - Duesseldorf
To GMAD - Al Massira
Flight Number -
Tags Generated
Created
Modified
Stats Distance 1,452 nm / 2,688 km
Max Altitude 0 ft / 0 m
Waypoints 8
Social Downloads 0
Likes 0
Share VATSIM

Download

Looking for another format? Having issues loading an existing format? Contact us
Advertisement - Login to hide

Notes

Generated

Route

EDDL VALNU MIRBA BAN29 MRN56 BRC40 AZR GMAD

ID Type Via Altitude Latitude Longitude Leg Dist Tot Dist Heading (true) Name
O EDDL APT - 0 ft / 0 m 51.28373˚ 6.74873˚ - 0 nm - -
VALNU FIX - 0 ft / 0 m 48.08167˚ 3.26667˚ 235 nm 235 nm 216° / 214° -
MIRBA FIX - 0 ft / 0 m 44.72389˚ 0.32694˚ 235 nm 470 nm 212° / 210° -
BAN29 FIX - 0 ft / 0 m 40.85824˚ -2.80549˚ 270 nm 740 nm 212° / 210° -
MRN56 FIX - 0 ft / 0 m 37.37835˚ -5.28987˚ 238 nm 979 nm 210° / 208° -
BRC40 FIX - 0 ft / 0 m 33.93833˚ -7.42333˚ 231 nm 1210 nm 207° / 206° -
AZR NDB - 0 ft / 0 m 30.36676˚ -9.45067˚ 237 nm 1448 nm 206° / 205° INEZGANE NDB
O GMAD APT - 0 ft / 0 m 30.32539˚ -9.42970˚ 2 nm 1451 nm 156° / 156° -

Altitude Profile

Advertisement - Login to hide

Weather


0- 5 10 15 20 25 30 35+ Temperature / ° C

Clouds and Precipitation
Forecast for 2017-12-14 06:00 UTC. Updated an hour ago

Ground ~20,000 ft ~40,000 ft Winds

EDDL

Details ICAO EDDL (DUS)
Name Duesseldorf
Region Germany - Civil
Timezone Europe/Berlin (UTC+1.0)
Stats Elevation 146 ft / 45 m (AMSL)
Location 51.289419° 6.766637°
Runways 2
Magnetic Variation 1.806° E

METAR

EDDL 140420Z 24013KT 9999 FEW006 BKN012 03/02 Q0989 BECMG BKN030

Decode

TAF

TAF EDDL 132300Z 1400/1506 24015G25KT 9999 BKN020 TEMPO 1400/1403 20010KT TEMPO 1403/1407 SHRASN BKN010TCU PROB30 TEMPO 1403/1407 26020G30KT TSRA PROB30 TEMPO 1410/1414 23020G30KT BECMG 1415/1418 20009KT

Decode

Departure Runways

ID Width Length Bearing (true) Bearing (mag) Surface Threshold Offset Overrun Length
05L 148 ft / 45 m 8,895 ft / 2,711 m 52.72° 50.91° Concrete 994 ft / 303 m 906 ft / 276 m
05R 148 ft / 45 m 9,858 ft / 3,005 m 52.68° 50.87° Concrete 984 ft / 300 m 659 ft / 201 m
23L 148 ft / 45 m 9,858 ft / 3,005 m 232.71° 230.90° Concrete 984 ft / 300 m 702 ft / 214 m
23R 148 ft / 45 m 8,895 ft / 2,711 m 232.75° 230.94° Concrete 971 ft / 296 m 928 ft / 283 m

GMAD

Details ICAO GMAD
Name Agadir AL MASSIRA
Region Morocco
Timezone Africa/Casablanca (UTC+0.0)
Stats Elevation 250 ft / 76 m (AMSL)
Location 30.322623° -9.411528°
Runways 1
Magnetic Variation 2.482° W

METAR

GMAD 140430Z 10007KT CAVOK 11/08 Q1022 NOSIG

Decode

TAF

TAF GMAD 132300Z 1400/1506 06008KT CAVOK= TAF GMME 132300Z 1400/1506 12005KT CAVOK PROB30 TEMPO 1404/1408 VRB02KT 3000 BR SCT008 BECMG 14117/1419 32008KT 5000 BKN015

Decode

Destination Runways

ID Width Length Bearing (true) Bearing (mag) Surface Threshold Offset Overrun Length
10 148 ft / 45 m 10,509 ft / 3,203 m 91.58° 94.06° Asphalt 0 ft / 0 m 0 ft / 0 m
28 148 ft / 45 m 10,509 ft / 3,203 m 271.60° 274.08° Asphalt 0 ft / 0 m 0 ft / 0 m

Approach Navaids

Runway Type Ident Frequency Range Bearing (true) Bearing (mag) Slope Elevation
28 Localiser ADA 110.30 MHz 18 nm / 33 km 273.07° 275.55° - 250 ft / 76 m (AMSL)
28 Glidescope ADA 110.30 MHz 10 nm / 19 km 271.59° 274.07° 3.00° 250 ft / 76 m (AMSL)

Popular Alternatives